Air Quality Table

TIMESTAMP NO2 SO2 O3 CO TEMP HUM AIRPRES WS WD NO BENZENE
2022-01-21 05:00 7.7 µg/m3 N/A 78.56 µg/m3 0.65 mg/m3 11.29 °C 71.2 % 1,020.12 mbar 2.17 m/s 241.56 Deg 0.89 µg/m3 N/A
2022-01-21 04:00 3.17 µg/m3 N/A 85.56 µg/m3 0.94 mg/m3 11.57 °C 70.53 % 1,020.52 mbar 2.63 m/s 231.98 Deg 5.28 µg/m3 N/A
2022-01-21 03:00 2.98 µg/m3 N/A 81.24 µg/m3 0.73 mg/m3 11.61 °C 69.78 % 1,021.03 mbar 2.72 m/s 237.15 Deg 3.21 µg/m3 N/A
2022-01-21 02:00 3.19 µg/m3 N/A 78.47 µg/m3 0.83 mg/m3 11.69 °C 71.02 % 1,021.30 mbar 2.76 m/s 237.81 Deg -0.25 µg/m3 N/A
2022-01-21 01:00 4.26 µg/m3 N/A 78.78 µg/m3 0.64 mg/m3 12.02 °C 72.81 % 1,021.83 mbar 2.82 m/s 248.07 Deg -0 µg/m3 N/A
2022-01-21 00:00 4.44 µg/m3 N/A 72.38 µg/m3 0.65 mg/m3 12.52 °C 75.02 % 1,022.16 mbar 3.61 m/s 224.49 Deg 3.76 µg/m3 N/A
2022-01-20 23:00 11.6 µg/m3 N/A 62.48 µg/m3 0.73 mg/m3 11.78 °C 76.2 % 1,022.40 mbar 2.2 m/s 222.73 Deg 2.18 µg/m3 N/A
2022-01-20 22:00 15.05 µg/m3 N/A 63.03 µg/m3 0.83 mg/m3 11.66 °C 75.01 % 1,022.51 mbar 1.66 m/s 207.51 Deg 14.21 µg/m3 N/A
2022-01-20 21:00 26.64 µg/m3 N/A 52.56 µg/m3 0.93 mg/m3 11.71 °C 75.26 % 1,022.47 mbar 1.04 m/s 149.86 Deg 21.38 µg/m3 N/A
2022-01-20 20:00 27.39 µg/m3 N/A 52.13 µg/m3 1.04 mg/m3 11.77 °C 73.84 % 1,022.54 mbar 1.2 m/s 204.36 Deg 9.88 µg/m3 N/A
2022-01-20 19:00 23.3 µg/m3 N/A 49.37 µg/m3 0.69 mg/m3 12.29 °C 74.45 % 1,022.50 mbar 1.74 m/s 233.36 Deg 7.68 µg/m3 N/A
2022-01-20 18:00 36.31 µg/m3 N/A 41.39 µg/m3 0.65 mg/m3 12.7 °C 75.5 % 1,022.39 mbar 1.19 m/s 18 Deg 29.73 µg/m3 N/A
2022-01-20 17:00 20.19 µg/m3 N/A 57.51 µg/m3 0.93 mg/m3 13.58 °C 70.31 % 1,022.53 mbar 1.61 m/s 267.09 Deg 31.14 µg/m3 N/A
2022-01-20 16:00 19.08 µg/m3 N/A 58.07 µg/m3 0.69 mg/m3 14.03 °C 68.33 % 1,022.62 mbar 1.96 m/s 264.24 Deg 6.53 µg/m3 N/A
2022-01-20 15:00 16.25 µg/m3 N/A 63.97 µg/m3 0.68 mg/m3 13.97 °C 69.4 % 1,023.03 mbar 1.69 m/s 255.87 Deg 7.05 µg/m3 N/A
2022-01-20 14:00 17.25 µg/m3 N/A 60.56 µg/m3 0.72 mg/m3 13.72 °C 72.39 % 1,023.62 mbar 1.85 m/s 265.77 Deg 16.99 µg/m3 N/A
2022-01-20 13:00 21.75 µg/m3 N/A 49.23 µg/m3 0.52 mg/m3 13.2 °C 77.63 % 1,024.34 mbar 1.29 m/s 267.83 Deg 20.15 µg/m3 N/A
2022-01-20 12:00 30.04 µg/m3 N/A 45.12 µg/m3 0.31 mg/m3 12.87 °C 79.75 % 1,025.50 mbar 2.28 m/s 265.23 Deg 29.3 µg/m3 N/A
2022-01-20 11:00 32.56 µg/m3 N/A 34.36 µg/m3 0.31 mg/m3 13.77 °C 74.21 % 1,025.60 mbar 0.95 m/s 209.28 Deg 13.48 µg/m3 N/A
2022-01-20 10:00 54.84 µg/m3 N/A 5.42 µg/m3 0.42 mg/m3 12.62 °C 81.99 % 1,025.51 mbar 0.18 m/s 123.19 Deg 104.18 µg/m3 N/A
2022-01-20 09:00 58.61 µg/m3 N/A 6.87 µg/m3 0.43 mg/m3 11.55 °C 82.87 % 1,025.35 mbar 0.64 m/s 159.87 Deg 106.74 µg/m3 N/A
2022-01-20 08:00 59.96 µg/m3 N/A 7.52 µg/m3 0.56 mg/m3 10.52 °C 86.68 % 1,025.58 mbar 0.95 m/s 224.18 Deg 128.16 µg/m3 N/A

It is to be noted that the data is provisional and subject to quality assurance procedures. For validated data kindly refer your request to contact.air@era.org.mt